createdAt,value
2023-05-09T00:03:16.282Z,5.76
2023-05-09T00:08:23.370Z,6.79
2023-05-09T00:13:30.737Z,6.87
2023-05-09T00:18:38.077Z,7.11
2023-05-09T00:23:45.399Z,6.35
2023-05-09T00:28:52.712Z,7.79
2023-05-09T00:33:59.990Z,8.61
2023-05-09T00:39:07.129Z,7.51
2023-05-09T00:44:14.506Z,8.23
2023-05-09T00:49:21.685Z,7.60
2023-05-09T00:54:29.150Z,7.82
2023-05-09T00:59:36.465Z,9.03
2023-05-09T01:04:43.834Z,7.03
2023-05-09T01:09:51.090Z,7.23
2023-05-09T01:14:58.525Z,7.31
2023-05-09T01:20:05.814Z,7.88
2023-05-09T01:25:13.489Z,9.11
2023-05-09T01:30:20.621Z,9.73
2023-05-09T01:35:27.976Z,8.58
2023-05-09T01:40:35.301Z,6.73
2023-05-09T01:45:42.659Z,7.21
2023-05-09T01:50:49.863Z,8.18
2023-05-09T01:55:57.237Z,7.28
2023-05-09T02:01:04.456Z,6.45
2023-05-09T02:06:11.818Z,6.62
2023-05-09T02:11:19.107Z,7.54
2023-05-09T02:16:26.471Z,8.56
2023-05-09T02:21:33.788Z,8.32
2023-05-09T02:26:41.288Z,5.26
2023-05-09T02:31:48.647Z,7.70
2023-05-09T02:36:56.075Z,6.70
2023-05-09T02:42:03.334Z,8.24
2023-05-09T02:47:10.677Z,9.58
2023-05-09T02:52:17.939Z,7.38
2023-05-09T02:57:25.305Z,8.07
2023-05-09T03:02:32.728Z,7.31
2023-05-09T03:07:39.939Z,7.39
2023-05-09T03:12:47.129Z,9.34
2023-05-09T03:17:54.565Z,7.15
2023-05-09T03:23:01.754Z,6.94
2023-05-09T03:28:09.087Z,10.13
2023-05-09T03:33:16.343Z,9.71
2023-05-09T03:38:23.727Z,10.86
2023-05-09T03:43:31.038Z,6.54
2023-05-09T03:48:38.481Z,7.23
2023-05-09T03:53:45.715Z,7.87
2023-05-09T03:58:53.178Z,9.90
2023-05-09T04:04:00.429Z,8.18
2023-05-09T04:09:07.634Z,7.67
2023-05-09T04:14:14.826Z,8.16
2023-05-09T04:19:22.302Z,7.06
2023-05-09T04:24:29.528Z,8.06
2023-05-09T04:29:36.862Z,10.00
2023-05-09T04:34:44.081Z,8.23
2023-05-09T04:39:51.424Z,11.18
2023-05-09T04:44:58.740Z,8.54
2023-05-09T04:50:06.072Z,8.71
2023-05-09T04:55:13.530Z,9.07
2023-05-09T05:00:20.943Z,6.89
2023-05-09T05:05:28.320Z,8.52
2023-05-09T05:10:35.595Z,10.82
2023-05-09T05:15:42.752Z,8.98
2023-05-09T05:20:50.437Z,17.43
2023-05-09T05:25:57.624Z,7.82
2023-05-09T05:31:05.059Z,8.84
2023-05-09T05:36:12.237Z,7.41
2023-05-09T05:41:19.595Z,8.28
2023-05-09T05:46:26.920Z,9.19
2023-05-09T05:51:34.274Z,6.97
2023-05-09T05:56:41.418Z,5.58
2023-05-09T06:01:48.936Z,8.73
2023-05-09T06:06:56.098Z,11.37
2023-05-09T06:12:03.483Z,8.37
2023-05-09T06:17:11.010Z,9.61
2023-05-09T06:22:18.282Z,11.21
2023-05-09T06:27:25.518Z,11.01
2023-05-09T06:32:32.982Z,7.56
2023-05-09T06:37:40.236Z,6.28
2023-05-09T06:42:47.716Z,8.40
2023-05-09T06:47:54.962Z,9.85
2023-05-09T06:53:02.487Z,9.94
2023-05-09T06:58:09.694Z,10.97
2023-05-09T07:03:16.975Z,11.98
2023-05-09T07:08:24.204Z,10.06
2023-05-09T07:13:31.967Z,11.36
2023-05-09T07:18:39.423Z,9.41
2023-05-09T07:23:46.758Z,9.21
2023-05-09T07:28:53.928Z,5.93
2023-05-09T07:34:01.274Z,9.85
2023-05-09T07:39:08.562Z,8.88
2023-05-09T07:44:16.067Z,15.40
2023-05-09T07:49:25.529Z,10.59
2023-05-09T07:54:32.796Z,12.67
2023-05-09T07:59:44.608Z,12.20
2023-05-09T08:04:42.350Z,11.60
2023-05-09T08:09:49.498Z,13.51
2023-05-09T08:14:56.859Z,14.42
2023-05-09T08:20:04.109Z,12.13
2023-05-09T08:25:11.522Z,12.01
2023-05-09T08:30:19.712Z,15.00
2023-05-09T08:35:27.161Z,12.33
2023-05-09T08:40:34.449Z,10.59
2023-05-09T08:45:41.816Z,9.95
2023-05-09T08:50:49.061Z,10.70
2023-05-09T08:55:56.793Z,11.72
2023-05-09T09:01:04.051Z,10.75
2023-05-09T09:06:11.408Z,15.67
2023-05-09T09:11:18.673Z,14.30
2023-05-09T09:16:26.145Z,12.96
2023-05-09T09:21:33.370Z,15.37
2023-05-09T09:26:40.751Z,11.83
2023-05-09T09:31:48.130Z,18.94
2023-05-09T09:36:55.454Z,10.97
2023-05-09T09:42:02.809Z,11.12
2023-05-09T09:47:10.266Z,18.13
2023-05-09T09:52:17.489Z,13.65
2023-05-09T09:57:24.938Z,14.85
2023-05-09T10:02:32.260Z,14.03
2023-05-09T10:07:39.644Z,16.62
2023-05-09T10:17:51.528Z,18.05
2023-05-09T10:22:58.636Z,17.37
2023-05-09T10:28:06.134Z,21.35
2023-05-09T10:33:13.311Z,18.40
2023-05-09T10:38:20.615Z,13.53
2023-05-09T10:43:27.857Z,15.62
2023-05-09T10:48:35.162Z,15.75
2023-05-09T10:53:42.384Z,14.70
2023-05-09T10:58:49.819Z,14.17
2023-05-09T11:03:57.196Z,17.01
2023-05-09T11:09:04.511Z,15.90
2023-05-09T11:14:11.722Z,17.92
2023-05-09T11:19:19.014Z,16.02
2023-05-09T11:24:26.231Z,16.08
2023-05-09T11:29:33.563Z,17.60
2023-05-09T11:34:40.745Z,12.47
2023-05-09T11:39:48.036Z,15.89
2023-05-09T11:44:55.276Z,14.58
2023-05-09T11:50:02.622Z,14.49
2023-05-09T11:55:12.238Z,16.07
2023-05-09T12:00:16.971Z,16.78
2023-05-09T12:05:24.226Z,13.54
2023-05-09T12:10:31.687Z,17.58
2023-05-09T12:15:39.622Z,14.74
2023-05-09T12:20:46.896Z,15.28
2023-05-09T12:25:54.196Z,12.73
2023-05-09T12:31:01.686Z,13.76
2023-05-09T12:36:08.843Z,16.12
2023-05-09T12:41:30.927Z,13.91
2023-05-09T12:46:23.205Z,16.63
2023-05-09T12:51:30.532Z,13.20
2023-05-09T12:56:37.940Z,11.47
2023-05-09T13:01:45.407Z,13.13
2023-05-09T13:06:52.675Z,10.84
2023-05-09T13:12:00.139Z,9.25
2023-05-09T13:17:07.505Z,10.25
2023-05-09T13:22:14.838Z,12.82
2023-05-09T13:27:22.122Z,11.22
2023-05-09T13:32:29.680Z,16.40
2023-05-09T13:37:36.870Z,10.75
2023-05-09T13:42:44.217Z,9.73
2023-05-09T13:47:51.533Z,11.86
2023-05-09T13:52:58.937Z,12.25
2023-05-09T13:58:06.158Z,8.60
2023-05-09T14:03:13.498Z,11.58
2023-05-09T14:08:20.801Z,11.08
2023-05-09T14:13:28.233Z,13.36
2023-05-09T14:18:35.249Z,17.75
2023-05-09T14:23:42.952Z,8.97
2023-05-09T14:28:50.448Z,11.53
2023-05-09T14:33:57.851Z,12.10
2023-05-09T14:39:05.206Z,12.11
2023-05-09T14:44:12.652Z,12.55
2023-05-09T14:49:19.952Z,10.73
2023-05-09T14:54:27.348Z,10.04
2023-05-09T14:59:36.886Z,12.31
2023-05-09T15:04:41.503Z,10.50
2023-05-09T15:09:48.795Z,12.25
2023-05-09T15:14:56.206Z,9.89
2023-05-09T15:20:03.412Z,10.58
2023-05-09T15:25:10.879Z,9.98
2023-05-09T15:30:18.432Z,12.03
2023-05-09T15:35:25.641Z,12.94
2023-05-09T15:40:32.914Z,13.32
2023-05-09T15:45:40.247Z,14.12
2023-05-09T15:50:47.486Z,12.48
2023-05-09T15:55:54.856Z,10.22
2023-05-09T16:01:02.127Z,19.39
2023-05-09T16:06:09.474Z,9.55
2023-05-09T16:11:16.742Z,11.42
2023-05-09T16:16:24.142Z,16.14
2023-05-09T16:21:31.381Z,9.53
2023-05-09T16:26:38.643Z,13.23
2023-05-09T16:31:45.901Z,12.29
2023-05-09T16:36:53.261Z,11.46
2023-05-09T16:42:00.471Z,10.70
2023-05-09T16:47:07.744Z,11.31
2023-05-09T16:52:14.953Z,12.83
2023-05-09T16:57:22.423Z,14.54
2023-05-09T17:02:29.733Z,9.77
2023-05-09T17:07:37.067Z,12.89
2023-05-09T17:12:44.409Z,11.20
2023-05-09T17:17:51.729Z,13.99
2023-05-09T17:22:59.143Z,14.06
2023-05-09T17:28:06.718Z,16.20
2023-05-09T17:33:08.885Z,14.77
2023-05-09T17:38:16.276Z,12.09
2023-05-09T17:43:23.523Z,11.46
2023-05-09T17:48:31.015Z,9.47
2023-05-09T17:53:38.286Z,11.17
2023-05-09T17:58:46.993Z,13.86
2023-05-09T18:03:48.777Z,12.23
2023-05-09T18:08:59.058Z,10.28
2023-05-09T18:13:56.253Z,16.23
2023-05-09T18:19:03.982Z,17.01
2023-05-09T18:24:11.347Z,14.02
2023-05-09T18:29:19.818Z,11.88
2023-05-09T18:34:27.125Z,10.52
2023-05-09T18:39:34.599Z,10.60
2023-05-09T18:44:42.007Z,12.62
2023-05-09T18:49:49.365Z,13.98
2023-05-09T18:54:56.658Z,14.92
2023-05-09T19:00:04.111Z,17.50
2023-05-09T19:05:11.628Z,12.01
2023-05-09T19:10:19.161Z,9.82
2023-05-09T19:15:26.492Z,9.99
2023-05-09T19:20:34.095Z,12.25
2023-05-09T19:25:41.476Z,16.17
2023-05-09T19:30:49.030Z,16.56
2023-05-09T19:35:56.347Z,14.98
2023-05-09T19:41:03.771Z,19.68
2023-05-09T19:46:11.146Z,17.60
2023-05-09T19:51:18.438Z,18.26
2023-05-09T19:56:25.631Z,12.86
2023-05-09T20:01:33.104Z,17.31
2023-05-09T20:06:40.413Z,14.30
2023-05-09T20:11:47.776Z,15.00
2023-05-09T20:16:55.111Z,13.33
2023-05-09T20:22:02.798Z,14.71
2023-05-09T20:27:10.281Z,16.69
2023-05-09T20:32:17.731Z,16.08
2023-05-09T20:37:25.051Z,13.70
2023-05-09T20:42:32.554Z,12.91
2023-05-09T20:47:39.908Z,19.29
2023-05-09T20:52:47.299Z,12.85
2023-05-09T20:57:54.802Z,10.88
2023-05-09T21:03:02.386Z,15.42
2023-05-09T21:08:09.585Z,13.42
2023-05-09T21:13:17.157Z,17.74
2023-05-09T21:18:24.382Z,13.66
2023-05-09T21:23:31.960Z,14.83
2023-05-09T21:28:39.367Z,15.31
2023-05-09T21:33:46.772Z,14.76
2023-05-09T21:38:54.206Z,13.68
2023-05-09T21:44:02.186Z,15.75
2023-05-09T21:49:09.554Z,17.91
2023-05-09T21:54:17.100Z,16.32
2023-05-09T21:59:24.620Z,18.77
2023-05-09T22:04:32.076Z,15.15
2023-05-09T22:09:39.504Z,16.48
2023-05-09T22:14:55.932Z,9.75
2023-05-09T22:19:53.689Z,18.25
2023-05-09T22:25:01.102Z,14.24
2023-05-09T22:30:08.449Z,16.53
2023-05-09T22:35:15.906Z,15.99
2023-05-09T22:40:23.150Z,15.97
2023-05-09T22:45:30.571Z,15.62
2023-05-09T22:50:37.870Z,14.36
2023-05-09T22:55:45.223Z,14.64
2023-05-09T23:00:52.511Z,11.18
2023-05-09T23:05:59.786Z,12.21
2023-05-09T23:11:07.006Z,17.37
2023-05-09T23:16:14.584Z,13.02
2023-05-09T23:21:21.751Z,13.39
2023-05-09T23:26:29.194Z,13.41
2023-05-09T23:31:36.538Z,12.04
2023-05-09T23:36:43.884Z,10.61
2023-05-09T23:41:51.216Z,10.98
2023-05-09T23:46:58.744Z,14.20
2023-05-09T23:52:05.910Z,10.26
2023-05-09T23:57:13.418Z,13.43
